createdAt,value
2019-02-14T00:01:08.134Z,103441.98
2019-02-14T00:03:35.370Z,103440.41
2019-02-14T00:06:02.653Z,103432.27
2019-02-14T00:08:29.911Z,103439.63
2019-02-14T00:10:57.125Z,103444.07
2019-02-14T00:13:24.337Z,103447.39
2019-02-14T00:15:51.595Z,103443.13
2019-02-14T00:18:18.787Z,103451.65
2019-02-14T00:20:46.056Z,103452.71
2019-02-14T00:23:13.265Z,103456.23
2019-02-14T00:25:40.512Z,103453.63
2019-02-14T00:28:07.727Z,103449.92
2019-02-14T00:30:34.954Z,103447.20
2019-02-14T00:33:02.203Z,103440.98
2019-02-14T00:35:29.413Z,103444.80
2019-02-14T00:37:56.667Z,103443.73
2019-02-14T00:40:23.894Z,103435.51
2019-02-14T00:42:51.175Z,103437.59
2019-02-14T00:45:18.426Z,103434.31
2019-02-14T00:47:45.657Z,103438.25
2019-02-14T00:50:12.936Z,103441.27
2019-02-14T00:52:40.141Z,103435.79
2019-02-14T00:55:07.362Z,103438.88
2019-02-14T00:57:34.611Z,103442.83
2019-02-14T01:00:01.831Z,103441.14
2019-02-14T01:02:29.046Z,103434.48
2019-02-14T01:04:56.332Z,103430.27
2019-02-14T01:07:23.620Z,103428.45
2019-02-14T01:09:50.846Z,103426.34
2019-02-14T01:12:18.110Z,103431.45
2019-02-14T01:14:45.348Z,103430.14
2019-02-14T01:17:12.579Z,103440.59
2019-02-14T01:19:39.823Z,103436.93
2019-02-14T01:22:07.045Z,103440.70
2019-02-14T01:24:34.266Z,103443.84
2019-02-14T01:27:01.519Z,103447.17
2019-02-14T01:29:28.837Z,103445.38
2019-02-14T01:31:56.056Z,103436.05
2019-02-14T01:34:23.328Z,103436.81
2019-02-14T01:36:50.540Z,103430.16
2019-02-14T01:39:17.741Z,103433.84
2019-02-14T01:41:45.048Z,103427.95
2019-02-14T01:44:12.284Z,103427.95
2019-02-14T01:46:39.482Z,103430.25
2019-02-14T01:49:06.741Z,103434.36
2019-02-14T01:51:33.955Z,103435.67
2019-02-14T01:54:01.159Z,103441.41
2019-02-14T01:56:28.489Z,103439.86
2019-02-14T01:58:55.720Z,103434.39
2019-02-14T02:01:22.976Z,103427.58
2019-02-14T02:03:50.198Z,103422.38
2019-02-14T02:06:17.494Z,103423.26
2019-02-14T02:08:44.803Z,103428.27
2019-02-14T02:11:15.071Z,103423.26
2019-02-14T02:13:42.279Z,103430.31
2019-02-14T02:16:09.535Z,103428.36
2019-02-14T02:18:38.670Z,103424.97
2019-02-14T02:21:10.496Z,103425.63
2019-02-14T02:23:40.143Z,103442.08
2019-02-14T02:26:11.973Z,103439.52
2019-02-14T02:28:39.192Z,103440.09
2019-02-14T02:31:06.982Z,103450.31
2019-02-14T02:33:34.192Z,103450.56
2019-02-14T02:36:01.435Z,103439.55
2019-02-14T02:38:28.685Z,103432.95
2019-02-14T02:40:55.905Z,103436.84
2019-02-14T02:43:23.109Z,103439.98
2019-02-14T02:45:50.368Z,103432.41
2019-02-14T02:48:17.645Z,103429.55
2019-02-14T02:50:44.863Z,103439.47
2019-02-14T02:53:12.092Z,103439.59
2019-02-14T02:55:39.348Z,103442.66
2019-02-14T02:58:06.555Z,103447.37
2019-02-14T03:00:33.823Z,103451.45
2019-02-14T03:03:01.095Z,103452.38
2019-02-14T03:05:28.322Z,103452.38
2019-02-14T03:07:55.601Z,103455.40
2019-02-14T03:10:22.866Z,103460.89
2019-02-14T03:12:50.075Z,103468.72
2019-02-14T03:15:17.283Z,103454.60
2019-02-14T03:17:44.545Z,103455.03
2019-02-14T03:20:11.890Z,103457.80
2019-02-14T03:22:39.130Z,103458.70
2019-02-14T03:25:11.983Z,103464.73
2019-02-14T03:27:39.218Z,103466.66
2019-02-14T03:30:06.982Z,103471.48
2019-02-14T03:32:35.234Z,103468.47
2019-02-14T03:35:02.597Z,103467.17
2019-02-14T03:37:29.829Z,103465.34
2019-02-14T03:39:57.025Z,103468.72
2019-02-14T03:42:24.289Z,103475.11
2019-02-14T03:44:51.502Z,103482.26
2019-02-14T03:47:18.785Z,103482.09
2019-02-14T03:49:46.073Z,103482.72
2019-02-14T03:52:13.282Z,103494.17
2019-02-14T03:54:40.487Z,103499.12
2019-02-14T03:57:07.772Z,103493.06
2019-02-14T03:59:34.947Z,103493.33
2019-02-14T04:02:02.200Z,103488.62
2019-02-14T04:04:29.466Z,103487.31
2019-02-14T04:06:56.708Z,103488.62
2019-02-14T04:09:23.959Z,103487.79
2019-02-14T04:11:51.212Z,103486.48
2019-02-14T04:14:18.476Z,103490.75
2019-02-14T04:16:45.720Z,103496.73
2019-02-14T04:19:12.924Z,103496.68
2019-02-14T04:21:40.164Z,103507.23
2019-02-14T04:24:07.395Z,103506.79
2019-02-14T04:26:34.661Z,103504.54
2019-02-14T04:29:01.886Z,103503.00
2019-02-14T04:31:29.115Z,103495.06
2019-02-14T04:33:56.409Z,103494.20
2019-02-14T04:36:23.643Z,103483.91
2019-02-14T04:38:50.854Z,103477.50
2019-02-14T04:41:18.081Z,103484.03
2019-02-14T04:43:45.307Z,103484.98
2019-02-14T04:46:12.535Z,103485.50
2019-02-14T04:48:39.780Z,103489.37
2019-02-14T04:51:06.987Z,103488.97
2019-02-14T04:53:34.197Z,103490.91
2019-02-14T04:56:01.471Z,103491.30
2019-02-14T04:58:28.669Z,103495.22
2019-02-14T05:00:55.885Z,103492.09
2019-02-14T05:03:23.127Z,103482.73
2019-02-14T05:05:50.344Z,103473.09
2019-02-14T05:08:17.624Z,103477.17
2019-02-14T05:10:44.900Z,103477.41
2019-02-14T05:13:12.130Z,103477.13
2019-02-14T05:15:39.360Z,103476.84
2019-02-14T05:18:06.608Z,103474.22
2019-02-14T05:20:33.838Z,103479.12
2019-02-14T05:23:01.106Z,103487.28
2019-02-14T05:25:28.334Z,103491.32
2019-02-14T05:27:55.585Z,103489.17
2019-02-14T05:30:22.824Z,103495.47
2019-02-14T05:32:50.098Z,103496.54
2019-02-14T05:35:17.365Z,103492.23
2019-02-14T05:37:44.567Z,103494.09
2019-02-14T05:40:11.894Z,103492.91
2019-02-14T05:42:39.162Z,103491.93
2019-02-14T05:45:06.951Z,103492.69
2019-02-14T05:47:34.142Z,103491.48
2019-02-14T05:50:01.418Z,103488.98
2019-02-14T05:52:28.627Z,103484.22
2019-02-14T05:54:55.848Z,103482.86
2019-02-14T05:57:23.107Z,103495.97
2019-02-14T05:59:50.323Z,103502.78
2019-02-14T06:02:18.652Z,103507.72
2019-02-14T06:04:45.893Z,103512.15
2019-02-14T06:07:13.122Z,103514.24
2019-02-14T06:09:40.361Z,103516.23
2019-02-14T06:12:07.571Z,103513.63
2019-02-14T06:14:34.843Z,103508.73
2019-02-14T06:17:02.152Z,103507.20
2019-02-14T06:19:29.369Z,103499.36
2019-02-14T06:21:56.612Z,103495.53
2019-02-14T06:24:23.826Z,103499.78
2019-02-14T06:26:51.064Z,103512.45
2019-02-14T06:29:18.304Z,103515.36
2019-02-14T06:31:45.553Z,103520.87
2019-02-14T06:34:12.826Z,103520.08
2019-02-14T06:36:40.047Z,103524.69
2019-02-14T06:39:07.300Z,103518.65
2019-02-14T06:41:34.504Z,103525.84
2019-02-14T06:44:01.716Z,103527.55
2019-02-14T06:46:29.364Z,103530.38
2019-02-14T06:48:56.572Z,103529.92
2019-02-14T06:51:23.834Z,103534.13
2019-02-14T06:53:51.084Z,103522.63
2019-02-14T06:56:18.352Z,103525.72
2019-02-14T06:58:45.568Z,103519.66
2019-02-14T07:01:12.768Z,103518.12
2019-02-14T07:03:40.053Z,103519.87
2019-02-14T07:06:07.271Z,103516.83
2019-02-14T07:08:34.557Z,103518.35
2019-02-14T07:11:01.822Z,103519.88
2019-02-14T07:13:29.049Z,103525.48
2019-02-14T07:15:56.294Z,103531.09
2019-02-14T07:18:23.525Z,103527.67
2019-02-14T07:20:50.738Z,103528.59
2019-02-14T07:23:18.009Z,103530.67
2019-02-14T07:25:45.228Z,103531.58
2019-02-14T07:28:12.446Z,103522.85
2019-02-14T07:30:39.729Z,103519.64
2019-02-14T07:33:06.944Z,103517.72
2019-02-14T07:35:34.166Z,103513.51
2019-02-14T07:38:01.410Z,103514.03
2019-02-14T07:40:29.763Z,103512.12
2019-02-14T07:42:57.119Z,103509.12
2019-02-14T07:45:24.334Z,103509.44
2019-02-14T07:47:51.573Z,103512.45
2019-02-14T07:50:18.804Z,103509.84
2019-02-14T07:52:46.060Z,103510.46
2019-02-14T07:55:13.428Z,103519.96
2019-02-14T07:57:40.783Z,103520.89
2019-02-14T08:00:10.651Z,103514.80
2019-02-14T08:02:37.913Z,103524.69
2019-02-14T08:05:05.699Z,103521.40
2019-02-14T08:07:35.999Z,103524.53
2019-02-14T08:10:02.123Z,103532.66
2019-02-14T08:12:29.343Z,103531.52
2019-02-14T08:14:56.684Z,103535.39
2019-02-14T08:17:23.900Z,103534.77
2019-02-14T08:19:51.137Z,103532.91
2019-02-14T08:22:18.390Z,103542.27
2019-02-14T08:24:46.100Z,103541.66
2019-02-14T08:27:13.310Z,103525.32
2019-02-14T08:29:40.584Z,103523.38
2019-02-14T08:32:07.794Z,103517.36
2019-02-14T08:34:34.995Z,103524.12
2019-02-14T08:37:02.233Z,103523.32
2019-02-14T08:39:29.449Z,103523.73
2019-02-14T08:41:56.681Z,103532.00
2019-02-14T08:44:23.916Z,103527.55
2019-02-14T08:46:51.133Z,103525.42
2019-02-14T08:49:18.378Z,103529.52
2019-02-14T08:51:45.606Z,103525.31
2019-02-14T08:54:12.821Z,103525.52
2019-02-14T08:56:40.084Z,103529.37
2019-02-14T08:59:07.302Z,103534.53
2019-02-14T09:01:34.528Z,103539.41
2019-02-14T09:04:01.804Z,103539.04
2019-02-14T09:06:29.021Z,103550.27
2019-02-14T09:08:56.298Z,103549.58
2019-02-14T09:11:23.542Z,103552.16
2019-02-14T09:13:50.785Z,103551.81
2019-02-14T09:16:18.064Z,103550.03
2019-02-14T09:18:45.287Z,103552.45
2019-02-14T09:21:12.551Z,103553.86
2019-02-14T09:23:39.814Z,103542.80
2019-02-14T09:26:07.087Z,103537.95
2019-02-14T09:28:34.319Z,103540.88
2019-02-14T09:31:01.602Z,103534.70
2019-02-14T09:33:28.833Z,103534.86
2019-02-14T09:35:56.046Z,103542.88
2019-02-14T09:38:23.326Z,103545.52
2019-02-14T09:40:50.539Z,103545.52
2019-02-14T09:43:17.770Z,103548.15
2019-02-14T09:45:45.033Z,103563.23
2019-02-14T09:48:12.267Z,103562.73
2019-02-14T09:50:39.497Z,103560.38
2019-02-14T09:53:06.762Z,103562.09
2019-02-14T09:55:33.960Z,103554.73
2019-02-14T09:58:01.173Z,103554.36
2019-02-14T10:00:28.529Z,103559.90
2019-02-14T10:02:55.756Z,103555.30
2019-02-14T10:05:22.967Z,103553.33
2019-02-14T10:07:50.202Z,103549.38
2019-02-14T10:10:17.448Z,103544.00
2019-02-14T10:12:44.702Z,103544.00
2019-02-14T10:15:12.057Z,103548.08
2019-02-14T10:17:39.277Z,103555.80
2019-02-14T10:20:08.389Z,103547.52
2019-02-14T10:22:35.677Z,103558.39
2019-02-14T10:25:03.098Z,103563.77
2019-02-14T10:27:30.373Z,103562.82
2019-02-14T10:29:57.612Z,103559.81
2019-02-14T10:32:24.834Z,103569.92
2019-02-14T10:34:52.056Z,103575.98
2019-02-14T10:37:19.384Z,103570.98
2019-02-14T10:39:46.651Z,103570.19
2019-02-14T10:42:13.860Z,103556.30
2019-02-14T10:44:41.120Z,103554.67
2019-02-14T10:47:08.412Z,103552.84
2019-02-14T10:49:35.683Z,103549.42
2019-02-14T10:52:02.922Z,103552.72
2019-02-14T10:54:30.127Z,103552.13
2019-02-14T10:56:57.371Z,103558.95
2019-02-14T10:59:24.643Z,103565.09
2019-02-14T11:01:51.949Z,103571.95
2019-02-14T11:04:19.183Z,103574.53
2019-02-14T11:06:46.461Z,103576.52
2019-02-14T11:09:13.768Z,103568.63
2019-02-14T11:11:41.021Z,103571.66
2019-02-14T11:14:08.283Z,103568.20
2019-02-14T11:16:35.492Z,103562.69
2019-02-14T11:19:02.780Z,103569.48
2019-02-14T11:21:30.032Z,103579.08
2019-02-14T11:23:57.255Z,103572.67
2019-02-14T11:26:24.529Z,103575.11
2019-02-14T11:28:51.779Z,103577.02
2019-02-14T11:31:20.833Z,103574.90
2019-02-14T11:33:48.120Z,103560.04
2019-02-14T11:36:15.355Z,103559.29
2019-02-14T11:38:42.616Z,103559.29
2019-02-14T11:41:09.915Z,103572.37
2019-02-14T11:43:37.152Z,103572.37
2019-02-14T11:46:04.384Z,103575.84
2019-02-14T11:48:31.647Z,103575.37
2019-02-14T11:50:58.874Z,103569.31
2019-02-14T11:53:26.229Z,103552.92
2019-02-14T11:55:53.632Z,103552.92
2019-02-14T11:58:20.869Z,103544.87
2019-02-14T12:00:48.130Z,103548.64
2019-02-14T12:03:15.368Z,103540.94
2019-02-14T12:05:42.637Z,103540.94
2019-02-14T12:08:09.922Z,103542.25
2019-02-14T12:10:37.203Z,103547.28
2019-02-14T12:13:04.457Z,103540.58
2019-02-14T12:15:31.737Z,103540.58
2019-02-14T12:17:58.962Z,103540.44
2019-02-14T12:20:26.217Z,103537.12
2019-02-14T12:22:53.507Z,103544.20
2019-02-14T12:25:20.915Z,103537.35
2019-02-14T12:27:48.122Z,103539.49
2019-02-14T12:30:15.395Z,103534.67
2019-02-14T12:32:42.622Z,103547.29
2019-02-14T12:35:09.886Z,103547.29
2019-02-14T12:37:37.113Z,103543.16
2019-02-14T12:40:05.080Z,103535.08
2019-02-14T12:42:32.351Z,103537.52
2019-02-14T12:44:59.573Z,103534.97
2019-02-14T12:47:26.793Z,103532.24
2019-02-14T12:49:54.045Z,103529.66
2019-02-14T12:52:21.319Z,103536.72
2019-02-14T12:54:48.626Z,103537.80
2019-02-14T12:57:15.919Z,103538.09
2019-02-14T12:59:43.116Z,103543.39
2019-02-14T13:02:10.443Z,103525.81
2019-02-14T13:04:37.715Z,103536.64
2019-02-14T13:07:04.953Z,103524.05
2019-02-14T13:09:32.227Z,103522.33
2019-02-14T13:11:59.512Z,103523.77
2019-02-14T13:14:26.744Z,103525.73
2019-02-14T13:16:54.020Z,103525.73
2019-02-14T13:19:21.258Z,103516.05
2019-02-14T13:21:48.479Z,103517.52
2019-02-14T13:24:15.748Z,103523.01
2019-02-14T13:26:43.003Z,103515.73
2019-02-14T13:29:10.287Z,103501.43
2019-02-14T13:31:37.498Z,103520.22
2019-02-14T13:34:04.722Z,103516.05
2019-02-14T13:36:31.997Z,103504.69
2019-02-14T13:38:59.278Z,103504.69
2019-02-14T13:41:31.191Z,103499.36
2019-02-14T13:43:55.685Z,103503.84
2019-02-14T13:46:23.855Z,103507.39
2019-02-14T13:48:51.191Z,103496.98
2019-02-14T13:51:18.454Z,103499.98
2019-02-14T13:53:45.661Z,103496.09
2019-02-14T13:56:12.952Z,103502.96
2019-02-14T13:58:40.159Z,103506.98
2019-02-14T14:01:07.436Z,103494.30
2019-02-14T14:03:34.715Z,103500.61
2019-02-14T14:06:01.963Z,103500.61
2019-02-14T14:08:29.205Z,103497.40
2019-02-14T14:10:56.460Z,103487.71
2019-02-14T14:13:23.670Z,103491.25
2019-02-14T14:15:50.898Z,103489.49
2019-02-14T14:18:18.172Z,103489.37
2019-02-14T14:20:45.376Z,103496.30
2019-02-14T14:23:12.639Z,103489.24
2019-02-14T14:25:39.878Z,103483.55
2019-02-14T14:28:07.112Z,103483.55
2019-02-14T14:30:34.439Z,103472.98
2019-02-14T14:33:01.696Z,103484.37
2019-02-14T14:35:28.941Z,103477.34
2019-02-14T14:37:56.177Z,103479.23
2019-02-14T14:40:23.420Z,103474.86
2019-02-14T14:43:13.089Z,103474.99
2019-02-14T14:46:02.495Z,103474.54
2019-02-14T14:48:35.452Z,103478.20
2019-02-14T14:51:02.669Z,103481.59
2019-02-14T14:53:29.892Z,103474.82
2019-02-14T14:55:57.149Z,103479.19
2019-02-14T14:58:24.393Z,103485.70
2019-02-14T15:00:51.621Z,103484.31
2019-02-14T15:03:18.862Z,103469.53
2019-02-14T15:05:46.078Z,103482.84
2019-02-14T15:08:13.317Z,103482.78
2019-02-14T15:10:40.606Z,103472.32
2019-02-14T15:13:07.836Z,103481.73
2019-02-14T15:15:35.050Z,103485.01
2019-02-14T15:18:02.320Z,103477.17
2019-02-14T15:20:29.574Z,103470.31
2019-02-14T15:22:56.813Z,103471.19
2019-02-14T15:25:24.084Z,103474.61
2019-02-14T15:27:51.343Z,103470.25
2019-02-14T15:30:18.628Z,103468.78
2019-02-14T15:32:45.970Z,103463.02
2019-02-14T15:35:13.200Z,103462.12
2019-02-14T15:37:41.980Z,103465.86
2019-02-14T15:40:10.076Z,103455.05
2019-02-14T15:42:37.462Z,103455.05
2019-02-14T15:45:05.033Z,103456.02
2019-02-14T15:47:32.268Z,103455.04
2019-02-14T15:49:59.548Z,103449.71
2019-02-14T15:52:27.548Z,103449.28
2019-02-14T15:54:57.604Z,103458.87
2019-02-14T15:57:25.057Z,103456.42
2019-02-14T15:59:52.317Z,103455.89
2019-02-14T16:02:19.529Z,103454.91
2019-02-14T16:04:46.761Z,103458.58
2019-02-14T16:07:15.353Z,103464.48
2019-02-14T16:09:43.170Z,103463.57
2019-02-14T16:12:10.432Z,103455.66
2019-02-14T16:14:37.769Z,103451.09
2019-02-14T16:17:06.764Z,103443.06
2019-02-14T16:19:34.503Z,103453.38
2019-02-14T16:22:03.279Z,103441.13
2019-02-14T16:24:30.555Z,103447.97
2019-02-14T16:26:59.172Z,103452.27
2019-02-14T16:29:27.459Z,103448.19
2019-02-14T16:31:54.761Z,103444.14
2019-02-14T16:34:22.063Z,103439.73
2019-02-14T16:36:49.293Z,103438.59
2019-02-14T16:39:16.619Z,103438.25
2019-02-14T16:41:43.891Z,103448.84
2019-02-14T16:44:11.154Z,103452.64
2019-02-14T16:46:38.392Z,103447.98
2019-02-14T16:49:05.679Z,103454.41
2019-02-14T16:51:32.913Z,103451.01
2019-02-14T16:54:00.163Z,103455.02
2019-02-14T16:56:27.430Z,103451.12
2019-02-14T16:58:54.646Z,103458.56
2019-02-14T17:01:21.864Z,103454.40
2019-02-14T17:03:49.115Z,103454.45
2019-02-14T17:06:16.391Z,103456.35
2019-02-14T17:08:43.633Z,103456.35
2019-02-14T17:11:10.906Z,103471.36
2019-02-14T17:13:38.159Z,103460.45
2019-02-14T17:16:05.488Z,103460.45
2019-02-14T17:18:32.748Z,103476.22
2019-02-14T17:21:00.040Z,103473.22
2019-02-14T17:23:27.237Z,103471.00
2019-02-14T17:25:54.466Z,103470.13
2019-02-14T17:28:26.893Z,103472.66
2019-02-14T17:30:54.121Z,103473.59
2019-02-14T17:33:21.385Z,103466.81
2019-02-14T17:35:48.652Z,103466.81
2019-02-14T17:38:15.934Z,103473.38
2019-02-14T17:40:46.045Z,103477.89
2019-02-14T17:43:12.295Z,103477.89
2019-02-14T17:45:39.573Z,103479.23
2019-02-14T17:48:06.785Z,103478.58
2019-02-14T17:50:34.068Z,103469.41
2019-02-14T17:53:01.298Z,103470.73
2019-02-14T17:55:28.528Z,103469.03
2019-02-14T17:57:56.301Z,103468.69
2019-02-14T18:00:23.540Z,103471.44
2019-02-14T18:02:50.794Z,103470.02
2019-02-14T18:05:18.021Z,103478.05
2019-02-14T18:07:45.288Z,103467.81
2019-02-14T18:10:12.535Z,103469.55
2019-02-14T18:12:39.757Z,103471.28
2019-02-14T18:15:09.144Z,103469.44
2019-02-14T18:17:36.371Z,103468.16
2019-02-14T18:20:04.180Z,103469.49
2019-02-14T18:22:31.454Z,103469.09
2019-02-14T18:24:58.681Z,103466.63
2019-02-14T18:27:25.947Z,103472.66
2019-02-14T18:29:53.191Z,103462.57
2019-02-14T18:32:20.405Z,103472.30
2019-02-14T18:34:47.648Z,103468.70
2019-02-14T18:37:14.883Z,103472.27
2019-02-14T18:39:42.123Z,103469.25
2019-02-14T18:42:09.390Z,103473.84
2019-02-14T18:44:36.621Z,103470.28
2019-02-14T18:47:03.943Z,103471.73
2019-02-14T18:49:31.185Z,103477.37
2019-02-14T18:51:58.479Z,103473.95
2019-02-14T18:54:25.705Z,103477.77
2019-02-14T18:56:52.939Z,103483.77
2019-02-14T18:59:21.514Z,103479.42
2019-02-14T19:01:48.727Z,103473.92
2019-02-14T19:04:15.959Z,103477.19
2019-02-14T19:06:43.220Z,103475.72
2019-02-14T19:09:11.043Z,103481.50
2019-02-14T19:11:38.290Z,103481.09
2019-02-14T19:14:05.614Z,103477.25
2019-02-14T19:16:32.872Z,103479.35
2019-02-14T19:19:00.484Z,103485.73
2019-02-14T19:21:27.748Z,103485.62
2019-02-14T19:23:54.948Z,103486.36
2019-02-14T19:26:22.148Z,103487.38
2019-02-14T19:28:49.393Z,103483.03
2019-02-14T19:31:16.601Z,103485.23
2019-02-14T19:33:43.912Z,103481.17
2019-02-14T19:36:11.194Z,103481.79
2019-02-14T19:38:38.432Z,103472.19
2019-02-14T19:41:05.686Z,103474.13
2019-02-14T19:43:32.893Z,103465.89
2019-02-14T19:46:00.209Z,103467.44
2019-02-14T19:48:27.425Z,103473.55
2019-02-14T19:50:54.663Z,103477.20
2019-02-14T19:53:21.945Z,103471.19
2019-02-14T19:55:49.180Z,103464.95
2019-02-14T19:58:16.403Z,103456.34
2019-02-14T20:00:43.674Z,103456.34
2019-02-14T20:03:10.906Z,103461.15
2019-02-14T20:05:38.188Z,103460.87
2019-02-14T20:08:05.909Z,103456.92
2019-02-14T20:10:33.159Z,103459.38
2019-02-14T20:13:00.461Z,103456.88
2019-02-14T20:15:36.486Z,103458.44
2019-02-14T20:18:01.694Z,103453.05
2019-02-14T20:20:34.787Z,103452.93
2019-02-14T20:23:03.536Z,103460.37
2019-02-14T20:25:30.745Z,103461.13
2019-02-14T20:27:58.032Z,103456.55
2019-02-14T20:30:25.729Z,103457.57
2019-02-14T20:32:53.092Z,103457.81
2019-02-14T20:35:22.554Z,103457.93
2019-02-14T20:37:49.801Z,103451.39
2019-02-14T20:40:17.066Z,103447.23
2019-02-14T20:42:44.345Z,103453.30
2019-02-14T20:45:12.886Z,103459.38
2019-02-14T20:47:40.093Z,103453.01
2019-02-14T20:50:09.228Z,103450.37
2019-02-14T20:52:36.465Z,103450.83
2019-02-14T20:55:04.170Z,103452.51
2019-02-14T20:57:31.382Z,103454.70
2019-02-14T20:59:58.710Z,103452.20
2019-02-14T21:02:25.952Z,103439.77
2019-02-14T21:04:53.451Z,103434.63
2019-02-14T21:07:20.727Z,103444.42
2019-02-14T21:09:47.971Z,103443.09
2019-02-14T21:12:15.217Z,103449.35
2019-02-14T21:14:42.472Z,103446.46
2019-02-14T21:17:09.707Z,103444.84
2019-02-14T21:19:37.038Z,103441.92
2019-02-14T21:22:04.258Z,103444.11
2019-02-14T21:24:31.545Z,103442.92
2019-02-14T21:26:58.797Z,103449.26
2019-02-14T21:29:26.060Z,103444.63
2019-02-14T21:31:53.346Z,103445.22
2019-02-14T21:34:20.632Z,103446.48
2019-02-14T21:36:47.851Z,103453.20
2019-02-14T21:39:15.108Z,103454.98
2019-02-14T21:41:42.474Z,103456.38
2019-02-14T21:44:09.694Z,103455.94
2019-02-14T21:46:37.051Z,103451.34
2019-02-14T21:49:04.338Z,103452.23
2019-02-14T21:51:31.550Z,103457.41
2019-02-14T21:53:58.764Z,103460.33
2019-02-14T21:56:26.040Z,103454.14
2019-02-14T21:58:53.291Z,103452.55
2019-02-14T22:01:24.317Z,103454.48
2019-02-14T22:03:51.661Z,103443.98
2019-02-14T22:06:18.875Z,103451.20
2019-02-14T22:08:46.165Z,103447.80
2019-02-14T22:11:13.380Z,103444.05
2019-02-14T22:13:40.663Z,103440.60
2019-02-14T22:16:08.045Z,103448.69
2019-02-14T22:18:35.259Z,103437.02
2019-02-14T22:21:02.506Z,103438.88
2019-02-14T22:23:29.775Z,103445.02
2019-02-14T22:25:57.086Z,103440.94
2019-02-14T22:28:24.356Z,103443.70
2019-02-14T22:30:51.619Z,103446.84
2019-02-14T22:33:18.842Z,103441.78
2019-02-14T22:35:46.077Z,103437.86
2019-02-14T22:38:13.295Z,103443.37
2019-02-14T22:40:40.547Z,103442.23
2019-02-14T22:43:07.764Z,103444.45
2019-02-14T22:45:35.016Z,103438.89
2019-02-14T22:48:02.228Z,103442.02
2019-02-14T22:50:29.461Z,103439.97
2019-02-14T22:52:56.704Z,103430.44
2019-02-14T22:55:23.915Z,103437.13
2019-02-14T22:57:51.480Z,103435.19
2019-02-14T23:00:38.889Z,103434.25
2019-02-14T23:03:06.408Z,103433.72
2019-02-14T23:05:33.666Z,103435.27
2019-02-14T23:08:00.869Z,103435.14
2019-02-14T23:10:28.122Z,103431.97
2019-02-14T23:12:56.258Z,103436.12
2019-02-14T23:15:23.888Z,103433.09
2019-02-14T23:17:51.219Z,103431.23
2019-02-14T23:20:18.433Z,103433.84
2019-02-14T23:22:45.696Z,103441.16
2019-02-14T23:25:12.927Z,103443.08
2019-02-14T23:27:40.204Z,103445.24
2019-02-14T23:30:07.495Z,103445.63
2019-02-14T23:32:34.817Z,103442.18
2019-02-14T23:35:02.090Z,103446.94
2019-02-14T23:37:29.611Z,103439.97
2019-02-14T23:39:56.848Z,103441.77
2019-02-14T23:42:24.066Z,103438.18
2019-02-14T23:44:51.336Z,103441.02
2019-02-14T23:47:18.576Z,103442.65
2019-02-14T23:49:45.815Z,103433.58
2019-02-14T23:52:13.083Z,103436.42
2019-02-14T23:54:40.330Z,103442.48
2019-02-14T23:57:07.576Z,103449.09
2019-02-14T23:59:34.841Z,103450.33
